sensor_id;sensor_type;location;lat;lon;timestamp;P1;durP1;ratioP1;P2;durP2;ratioP2
75220;SDS011;63802;53.232;6.570;2023-02-15T00:01:37;63.10;;;26.15;;
75220;SDS011;63802;53.232;6.570;2023-02-15T00:04:03;65.68;;;25.60;;
75220;SDS011;63802;53.232;6.570;2023-02-15T00:06:30;64.57;;;25.42;;
75220;SDS011;63802;53.232;6.570;2023-02-15T00:08:55;66.30;;;25.65;;
75220;SDS011;63802;53.232;6.570;2023-02-15T00:11:21;72.72;;;25.73;;
75220;SDS011;63802;53.232;6.570;2023-02-15T00:14:13;69.63;;;25.77;;
75220;SDS011;63802;53.232;6.570;2023-02-15T00:16:44;63.20;;;23.73;;
75220;SDS011;63802;53.232;6.570;2023-02-15T00:19:11;66.43;;;25.58;;
75220;SDS011;63802;53.232;6.570;2023-02-15T00:21:38;68.88;;;26.10;;
75220;SDS011;63802;53.232;6.570;2023-02-15T00:24:05;65.63;;;26.88;;
75220;SDS011;63802;53.232;6.570;2023-02-15T00:26:32;66.38;;;25.02;;
75220;SDS011;63802;53.232;6.570;2023-02-15T00:28:58;66.50;;;26.25;;
75220;SDS011;63802;53.232;6.570;2023-02-15T00:31:24;75.18;;;25.67;;
75220;SDS011;63802;53.232;6.570;2023-02-15T00:33:49;63.25;;;24.88;;
75220;SDS011;63802;53.232;6.570;2023-02-15T00:36:15;67.63;;;24.20;;
75220;SDS011;63802;53.232;6.570;2023-02-15T00:38:41;72.30;;;25.60;;
75220;SDS011;63802;53.232;6.570;2023-02-15T00:41:06;67.88;;;25.52;;
75220;SDS011;63802;53.232;6.570;2023-02-15T00:43:33;74.75;;;25.98;;
75220;SDS011;63802;53.232;6.570;2023-02-15T00:45:59;64.75;;;24.92;;
75220;SDS011;63802;53.232;6.570;2023-02-15T00:48:25;67.28;;;24.73;;
75220;SDS011;63802;53.232;6.570;2023-02-15T00:50:52;62.95;;;23.92;;
75220;SDS011;63802;53.232;6.570;2023-02-15T00:53:19;65.53;;;24.75;;
75220;SDS011;63802;53.232;6.570;2023-02-15T00:55:45;71.75;;;27.27;;
75220;SDS011;63802;53.232;6.570;2023-02-15T00:58:11;61.17;;;24.45;;
75220;SDS011;63802;53.232;6.570;2023-02-15T01:00:38;63.03;;;23.35;;
75220;SDS011;63802;53.232;6.570;2023-02-15T01:03:05;82.88;;;26.25;;
75220;SDS011;63802;53.232;6.570;2023-02-15T01:05:30;70.20;;;27.25;;
75220;SDS011;63802;53.232;6.570;2023-02-15T01:07:57;74.57;;;26.40;;
75220;SDS011;63802;53.232;6.570;2023-02-15T01:10:23;76.85;;;26.95;;
75220;SDS011;63802;53.232;6.570;2023-02-15T01:12:49;75.55;;;26.60;;
75220;SDS011;63802;53.232;6.570;2023-02-15T01:15:15;71.05;;;26.83;;
75220;SDS011;63802;53.232;6.570;2023-02-15T01:17:41;61.03;;;23.40;;
75220;SDS011;63802;53.232;6.570;2023-02-15T01:20:06;59.25;;;22.73;;
75220;SDS011;63802;53.232;6.570;2023-02-15T01:22:32;57.65;;;22.75;;
75220;SDS011;63802;53.232;6.570;2023-02-15T01:24:58;64.03;;;23.98;;
75220;SDS011;63802;53.232;6.570;2023-02-15T01:27:23;59.17;;;22.52;;
75220;SDS011;63802;53.232;6.570;2023-02-15T01:29:49;56.72;;;23.13;;
75220;SDS011;63802;53.232;6.570;2023-02-15T01:32:14;61.53;;;23.30;;
75220;SDS011;63802;53.232;6.570;2023-02-15T01:34:39;57.97;;;21.67;;
75220;SDS011;63802;53.232;6.570;2023-02-15T01:37:05;60.50;;;23.30;;
75220;SDS011;63802;53.232;6.570;2023-02-15T01:39:30;54.25;;;22.60;;
75220;SDS011;63802;53.232;6.570;2023-02-15T01:41:56;65.80;;;23.33;;
75220;SDS011;63802;53.232;6.570;2023-02-15T01:47:29;53.03;;;20.95;;
75220;SDS011;63802;53.232;6.570;2023-02-15T01:50:03;54.25;;;21.13;;
75220;SDS011;63802;53.232;6.570;2023-02-15T01:52:41;59.97;;;21.60;;
75220;SDS011;63802;53.232;6.570;2023-02-15T01:55:11;50.80;;;20.77;;
75220;SDS011;63802;53.232;6.570;2023-02-15T01:57:37;56.13;;;21.50;;
75220;SDS011;63802;53.232;6.570;2023-02-15T02:00:04;64.97;;;21.95;;
75220;SDS011;63802;53.232;6.570;2023-02-15T02:02:31;54.15;;;20.83;;
75220;SDS011;63802;53.232;6.570;2023-02-15T02:04:58;55.58;;;21.02;;
75220;SDS011;63802;53.232;6.570;2023-02-15T02:07:28;53.95;;;21.45;;
75220;SDS011;63802;53.232;6.570;2023-02-15T02:12:23;43.75;;;18.40;;
75220;SDS011;63802;53.232;6.570;2023-02-15T02:14:50;53.28;;;20.75;;
75220;SDS011;63802;53.232;6.570;2023-02-15T02:17:20;52.00;;;20.40;;
75220;SDS011;63802;53.232;6.570;2023-02-15T02:34:07;54.28;;;21.55;;
75220;SDS011;63802;53.232;6.570;2023-02-15T02:36:44;54.30;;;22.05;;
75220;SDS011;63802;53.232;6.570;2023-02-15T02:47:46;51.95;;;20.80;;
75220;SDS011;63802;53.232;6.570;2023-02-15T02:50:21;44.70;;;20.15;;
75220;SDS011;63802;53.232;6.570;2023-02-15T02:52:50;50.53;;;21.20;;
75220;SDS011;63802;53.232;6.570;2023-02-15T02:58:05;56.45;;;21.08;;
75220;SDS011;63802;53.232;6.570;2023-02-15T03:01:00;57.38;;;21.00;;
75220;SDS011;63802;53.232;6.570;2023-02-15T03:06:30;54.25;;;19.88;;
75220;SDS011;63802;53.232;6.570;2023-02-15T03:09:11;50.40;;;20.25;;
75220;SDS011;63802;53.232;6.570;2023-02-15T03:11:46;49.88;;;20.85;;
75220;SDS011;63802;53.232;6.570;2023-02-15T03:14:13;46.80;;;20.75;;
75220;SDS011;63802;53.232;6.570;2023-02-15T03:16:42;47.88;;;18.60;;
75220;SDS011;63802;53.232;6.570;2023-02-15T03:21:49;50.00;;;19.95;;
75220;SDS011;63802;53.232;6.570;2023-02-15T03:24:23;43.78;;;19.17;;
75220;SDS011;63802;53.232;6.570;2023-02-15T03:26:54;51.78;;;19.40;;
75220;SDS011;63802;53.232;6.570;2023-02-15T03:29:22;48.47;;;19.75;;
75220;SDS011;63802;53.232;6.570;2023-02-15T03:31:53;52.58;;;21.02;;
75220;SDS011;63802;53.232;6.570;2023-02-15T03:34:23;51.47;;;19.13;;
75220;SDS011;63802;53.232;6.570;2023-02-15T03:36:50;49.00;;;18.23;;
75220;SDS011;63802;53.232;6.570;2023-02-15T03:39:20;47.38;;;19.40;;
75220;SDS011;63802;53.232;6.570;2023-02-15T03:44:51;52.50;;;19.38;;
75220;SDS011;63802;53.232;6.570;2023-02-15T03:47:25;52.83;;;21.42;;
75220;SDS011;63802;53.232;6.570;2023-02-15T03:52:59;42.65;;;18.17;;
75220;SDS011;63802;53.232;6.570;2023-02-15T03:55:29;54.35;;;18.85;;
75220;SDS011;63802;53.232;6.570;2023-02-15T03:57:55;46.83;;;20.45;;
75220;SDS011;63802;53.232;6.570;2023-02-15T04:00:40;45.58;;;18.80;;
75220;SDS011;63802;53.232;6.570;2023-02-15T04:03:40;39.80;;;17.88;;
75220;SDS011;63802;53.232;6.570;2023-02-15T04:06:09;45.67;;;18.90;;
75220;SDS011;63802;53.232;6.570;2023-02-15T04:08:35;51.47;;;20.98;;
75220;SDS011;63802;53.232;6.570;2023-02-15T04:11:19;53.80;;;20.60;;
75220;SDS011;63802;53.232;6.570;2023-02-15T04:13:44;50.75;;;19.98;;
75220;SDS011;63802;53.232;6.570;2023-02-15T04:16:09;49.83;;;21.10;;
75220;SDS011;63802;53.232;6.570;2023-02-15T04:18:39;52.75;;;20.55;;
75220;SDS011;63802;53.232;6.570;2023-02-15T04:21:26;58.35;;;19.92;;
75220;SDS011;63802;53.232;6.570;2023-02-15T04:24:11;51.25;;;19.50;;
75220;SDS011;63802;53.232;6.570;2023-02-15T04:26:56;42.45;;;18.40;;
75220;SDS011;63802;53.232;6.570;2023-02-15T04:29:22;53.38;;;21.63;;
75220;SDS011;63802;53.232;6.570;2023-02-15T04:31:49;51.03;;;20.02;;
75220;SDS011;63802;53.232;6.570;2023-02-15T04:34:15;58.80;;;22.50;;
75220;SDS011;63802;53.232;6.570;2023-02-15T04:36:41;53.35;;;20.15;;
75220;SDS011;63802;53.232;6.570;2023-02-15T04:39:07;55.65;;;21.60;;
75220;SDS011;63802;53.232;6.570;2023-02-15T04:41:33;56.03;;;20.42;;
75220;SDS011;63802;53.232;6.570;2023-02-15T04:43:59;52.08;;;21.52;;
75220;SDS011;63802;53.232;6.570;2023-02-15T04:46:25;52.80;;;22.23;;
75220;SDS011;63802;53.232;6.570;2023-02-15T04:48:51;63.63;;;23.08;;
75220;SDS011;63802;53.232;6.570;2023-02-15T04:51:16;54.53;;;22.35;;
75220;SDS011;63802;53.232;6.570;2023-02-15T04:53:42;51.92;;;18.75;;
75220;SDS011;63802;53.232;6.570;2023-02-15T04:56:07;60.42;;;20.13;;
75220;SDS011;63802;53.232;6.570;2023-02-15T04:58:33;49.80;;;19.92;;
75220;SDS011;63802;53.232;6.570;2023-02-15T05:00:58;44.72;;;18.45;;
75220;SDS011;63802;53.232;6.570;2023-02-15T05:03:24;49.80;;;19.10;;
75220;SDS011;63802;53.232;6.570;2023-02-15T05:05:50;55.42;;;21.75;;
75220;SDS011;63802;53.232;6.570;2023-02-15T05:08:16;50.30;;;19.45;;
75220;SDS011;63802;53.232;6.570;2023-02-15T05:10:42;61.85;;;21.48;;
75220;SDS011;63802;53.232;6.570;2023-02-15T05:13:07;52.47;;;20.60;;
75220;SDS011;63802;53.232;6.570;2023-02-15T05:15:32;52.60;;;21.02;;
75220;SDS011;63802;53.232;6.570;2023-02-15T05:17:58;52.72;;;20.92;;
75220;SDS011;63802;53.232;6.570;2023-02-15T05:20:23;58.53;;;23.40;;
75220;SDS011;63802;53.232;6.570;2023-02-15T05:22:50;69.57;;;23.92;;
75220;SDS011;63802;53.232;6.570;2023-02-15T05:25:18;57.83;;;21.67;;
75220;SDS011;63802;53.232;6.570;2023-02-15T05:28:02;52.92;;;20.33;;
75220;SDS011;63802;53.232;6.570;2023-02-15T05:30:46;56.10;;;22.95;;
75220;SDS011;63802;53.232;6.570;2023-02-15T05:33:13;72.38;;;24.58;;
75220;SDS011;63802;53.232;6.570;2023-02-15T05:35:38;66.45;;;24.90;;
75220;SDS011;63802;53.232;6.570;2023-02-15T05:38:04;57.58;;;24.20;;
75220;SDS011;63802;53.232;6.570;2023-02-15T05:40:29;60.80;;;22.80;;
75220;SDS011;63802;53.232;6.570;2023-02-15T05:42:55;65.32;;;24.05;;
75220;SDS011;63802;53.232;6.570;2023-02-15T05:45:21;67.72;;;24.65;;
75220;SDS011;63802;53.232;6.570;2023-02-15T05:47:46;73.78;;;25.65;;
75220;SDS011;63802;53.232;6.570;2023-02-15T05:50:12;63.53;;;24.65;;
75220;SDS011;63802;53.232;6.570;2023-02-15T05:52:37;72.63;;;25.77;;
75220;SDS011;63802;53.232;6.570;2023-02-15T05:55:03;70.10;;;26.42;;
75220;SDS011;63802;53.232;6.570;2023-02-15T05:57:29;73.60;;;25.13;;
75220;SDS011;63802;53.232;6.570;2023-02-15T05:59:58;66.75;;;24.65;;
75220;SDS011;63802;53.232;6.570;2023-02-15T06:02:23;77.22;;;23.88;;
75220;SDS011;63802;53.232;6.570;2023-02-15T06:04:49;63.38;;;24.73;;
75220;SDS011;63802;53.232;6.570;2023-02-15T06:07:14;59.92;;;23.50;;
75220;SDS011;63802;53.232;6.570;2023-02-15T06:09:40;51.78;;;22.38;;
75220;SDS011;63802;53.232;6.570;2023-02-15T06:12:05;69.25;;;25.25;;
75220;SDS011;63802;53.232;6.570;2023-02-15T06:14:30;67.88;;;25.05;;
75220;SDS011;63802;53.232;6.570;2023-02-15T06:16:56;95.22;;;32.15;;
75220;SDS011;63802;53.232;6.570;2023-02-15T06:19:21;96.32;;;33.22;;
75220;SDS011;63802;53.232;6.570;2023-02-15T06:21:47;117.28;;;35.42;;
75220;SDS011;63802;53.232;6.570;2023-02-15T06:24:13;127.32;;;37.90;;
75220;SDS011;63802;53.232;6.570;2023-02-15T06:26:38;111.05;;;35.50;;
75220;SDS011;63802;53.232;6.570;2023-02-15T06:29:04;160.40;;;43.20;;
75220;SDS011;63802;53.232;6.570;2023-02-15T06:31:29;165.52;;;43.92;;
75220;SDS011;63802;53.232;6.570;2023-02-15T06:33:57;179.27;;;46.25;;
75220;SDS011;63802;53.232;6.570;2023-02-15T06:36:26;180.02;;;48.45;;
75220;SDS011;63802;53.232;6.570;2023-02-15T06:38:53;208.90;;;48.67;;
75220;SDS011;63802;53.232;6.570;2023-02-15T06:41:19;193.18;;;48.53;;
75220;SDS011;63802;53.232;6.570;2023-02-15T06:43:45;223.30;;;50.53;;
75220;SDS011;63802;53.232;6.570;2023-02-15T06:46:10;178.30;;;46.85;;
75220;SDS011;63802;53.232;6.570;2023-02-15T06:48:36;197.70;;;49.97;;
75220;SDS011;63802;53.232;6.570;2023-02-15T06:51:01;178.40;;;47.72;;
75220;SDS011;63802;53.232;6.570;2023-02-15T06:53:27;141.32;;;45.88;;
75220;SDS011;63802;53.232;6.570;2023-02-15T06:55:52;151.82;;;45.53;;
75220;SDS011;63802;53.232;6.570;2023-02-15T06:58:24;142.88;;;40.83;;
75220;SDS011;63802;53.232;6.570;2023-02-15T07:00:51;136.05;;;41.72;;
75220;SDS011;63802;53.232;6.570;2023-02-15T07:03:16;141.80;;;39.67;;
75220;SDS011;63802;53.232;6.570;2023-02-15T07:05:42;131.00;;;38.00;;
75220;SDS011;63802;53.232;6.570;2023-02-15T07:08:08;113.60;;;38.15;;
75220;SDS011;63802;53.232;6.570;2023-02-15T07:10:34;116.07;;;36.20;;
75220;SDS011;63802;53.232;6.570;2023-02-15T07:12:59;102.53;;;33.97;;
75220;SDS011;63802;53.232;6.570;2023-02-15T07:15:25;102.78;;;34.03;;
75220;SDS011;63802;53.232;6.570;2023-02-15T07:17:50;97.63;;;33.47;;
75220;SDS011;63802;53.232;6.570;2023-02-15T07:20:17;81.90;;;31.15;;
75220;SDS011;63802;53.232;6.570;2023-02-15T07:22:48;81.05;;;29.83;;
75220;SDS011;63802;53.232;6.570;2023-02-15T07:25:14;84.60;;;29.00;;
75220;SDS011;63802;53.232;6.570;2023-02-15T07:27:39;78.82;;;28.63;;
75220;SDS011;63802;53.232;6.570;2023-02-15T07:30:06;67.88;;;25.58;;
75220;SDS011;63802;53.232;6.570;2023-02-15T07:32:33;68.35;;;27.75;;
75220;SDS011;63802;53.232;6.570;2023-02-15T07:34:58;72.47;;;28.25;;
75220;SDS011;63802;53.232;6.570;2023-02-15T07:37:24;70.40;;;26.58;;
75220;SDS011;63802;53.232;6.570;2023-02-15T07:39:50;79.28;;;26.42;;
75220;SDS011;63802;53.232;6.570;2023-02-15T07:42:15;70.65;;;27.20;;
75220;SDS011;63802;53.232;6.570;2023-02-15T07:44:42;63.13;;;24.20;;
75220;SDS011;63802;53.232;6.570;2023-02-15T07:47:08;62.97;;;24.48;;
75220;SDS011;63802;53.232;6.570;2023-02-15T07:49:34;65.63;;;24.85;;
75220;SDS011;63802;53.232;6.570;2023-02-15T07:52:00;58.72;;;24.98;;
75220;SDS011;63802;53.232;6.570;2023-02-15T07:54:26;57.97;;;24.20;;
75220;SDS011;63802;53.232;6.570;2023-02-15T07:56:52;56.72;;;23.63;;
75220;SDS011;63802;53.232;6.570;2023-02-15T07:59:18;59.58;;;24.00;;
75220;SDS011;63802;53.232;6.570;2023-02-15T08:01:43;53.78;;;21.85;;
75220;SDS011;63802;53.232;6.570;2023-02-15T08:04:09;58.72;;;23.35;;
75220;SDS011;63802;53.232;6.570;2023-02-15T08:06:36;59.00;;;22.70;;
75220;SDS011;63802;53.232;6.570;2023-02-15T08:09:06;55.08;;;23.10;;
75220;SDS011;63802;53.232;6.570;2023-02-15T08:11:35;53.88;;;23.27;;
75220;SDS011;63802;53.232;6.570;2023-02-15T08:19:21;53.47;;;21.83;;
75220;SDS011;63802;53.232;6.570;2023-02-15T08:21:52;55.92;;;22.95;;
75220;SDS011;63802;53.232;6.570;2023-02-15T08:24:22;54.13;;;22.98;;
75220;SDS011;63802;53.232;6.570;2023-02-15T08:26:49;58.95;;;23.77;;
75220;SDS011;63802;53.232;6.570;2023-02-15T08:29:16;49.15;;;21.42;;
75220;SDS011;63802;53.232;6.570;2023-02-15T08:31:44;49.67;;;22.15;;
75220;SDS011;63802;53.232;6.570;2023-02-15T08:34:11;57.20;;;22.88;;
75220;SDS011;63802;53.232;6.570;2023-02-15T08:36:39;54.60;;;22.80;;
75220;SDS011;63802;53.232;6.570;2023-02-15T08:39:06;44.53;;;19.58;;
75220;SDS011;63802;53.232;6.570;2023-02-15T08:41:35;46.05;;;21.02;;
75220;SDS011;63802;53.232;6.570;2023-02-15T08:44:02;53.88;;;21.38;;
75220;SDS011;63802;53.232;6.570;2023-02-15T08:46:31;52.42;;;23.08;;
75220;SDS011;63802;53.232;6.570;2023-02-15T08:48:58;45.40;;;20.88;;
75220;SDS011;63802;53.232;6.570;2023-02-15T08:51:25;50.10;;;20.58;;
75220;SDS011;63802;53.232;6.570;2023-02-15T08:53:54;44.85;;;20.58;;
75220;SDS011;63802;53.232;6.570;2023-02-15T08:56:23;46.40;;;20.15;;
75220;SDS011;63802;53.232;6.570;2023-02-15T08:58:51;47.17;;;21.13;;
75220;SDS011;63802;53.232;6.570;2023-02-15T09:01:19;48.42;;;20.75;;
75220;SDS011;63802;53.232;6.570;2023-02-15T09:03:47;45.08;;;20.65;;
75220;SDS011;63802;53.232;6.570;2023-02-15T09:06:14;49.40;;;21.08;;
75220;SDS011;63802;53.232;6.570;2023-02-15T09:08:41;45.20;;;19.52;;
75220;SDS011;63802;53.232;6.570;2023-02-15T09:13:31;41.00;;;20.15;;
75220;SDS011;63802;53.232;6.570;2023-02-15T09:16:00;44.30;;;20.52;;
75220;SDS011;63802;53.232;6.570;2023-02-15T09:18:29;36.17;;;17.63;;
75220;SDS011;63802;53.232;6.570;2023-02-15T09:21:07;42.47;;;19.17;;
75220;SDS011;63802;53.232;6.570;2023-02-15T09:23:34;40.17;;;19.25;;
75220;SDS011;63802;53.232;6.570;2023-02-15T09:26:02;43.55;;;18.40;;
75220;SDS011;63802;53.232;6.570;2023-02-15T09:28:28;43.75;;;19.75;;
75220;SDS011;63802;53.232;6.570;2023-02-15T09:30:54;38.25;;;18.45;;
75220;SDS011;63802;53.232;6.570;2023-02-15T09:33:20;39.35;;;17.92;;
75220;SDS011;63802;53.232;6.570;2023-02-15T09:35:46;44.75;;;18.88;;
75220;SDS011;63802;53.232;6.570;2023-02-15T09:38:12;39.50;;;17.90;;
75220;SDS011;63802;53.232;6.570;2023-02-15T09:40:41;36.28;;;17.20;;
75220;SDS011;63802;53.232;6.570;2023-02-15T09:43:27;37.67;;;17.80;;
75220;SDS011;63802;53.232;6.570;2023-02-15T09:48:41;34.80;;;16.38;;
75220;SDS011;63802;53.232;6.570;2023-02-15T09:51:23;40.00;;;18.40;;
75220;SDS011;63802;53.232;6.570;2023-02-15T09:54:03;35.03;;;16.75;;
75220;SDS011;63802;53.232;6.570;2023-02-15T09:56:57;35.17;;;16.52;;
75220;SDS011;63802;53.232;6.570;2023-02-15T10:02:11;40.15;;;17.95;;
75220;SDS011;63802;53.232;6.570;2023-02-15T10:04:48;32.47;;;17.17;;
75220;SDS011;63802;53.232;6.570;2023-02-15T10:13:18;36.28;;;16.65;;
75220;SDS011;63802;53.232;6.570;2023-02-15T10:18:49;35.70;;;17.23;;
75220;SDS011;63802;53.232;6.570;2023-02-15T10:24:40;33.60;;;16.75;;
75220;SDS011;63802;53.232;6.570;2023-02-15T10:27:18;33.63;;;16.50;;
75220;SDS011;63802;53.232;6.570;2023-02-15T10:33:01;34.75;;;16.55;;
75220;SDS011;63802;53.232;6.570;2023-02-15T10:38:10;39.85;;;17.65;;
75220;SDS011;63802;53.232;6.570;2023-02-15T10:46:13;36.40;;;16.95;;
75220;SDS011;63802;53.232;6.570;2023-02-15T10:56:58;37.33;;;17.17;;
75220;SDS011;63802;53.232;6.570;2023-02-15T11:07:47;33.45;;;15.40;;
75220;SDS011;63802;53.232;6.570;2023-02-15T11:12:44;35.70;;;16.85;;
75220;SDS011;63802;53.232;6.570;2023-02-15T11:20:44;40.08;;;17.73;;
75220;SDS011;63802;53.232;6.570;2023-02-15T11:23:35;40.42;;;18.05;;
75220;SDS011;63802;53.232;6.570;2023-02-15T11:26:09;37.10;;;16.67;;
75220;SDS011;63802;53.232;6.570;2023-02-15T11:28:56;37.97;;;16.90;;
75220;SDS011;63802;53.232;6.570;2023-02-15T11:31:27;38.95;;;16.02;;
75220;SDS011;63802;53.232;6.570;2023-02-15T11:34:04;36.28;;;17.27;;
75220;SDS011;63802;53.232;6.570;2023-02-15T11:36:37;39.72;;;16.92;;
75220;SDS011;63802;53.232;6.570;2023-02-15T11:39:09;36.20;;;16.60;;
75220;SDS011;63802;53.232;6.570;2023-02-15T11:41:52;37.30;;;16.73;;
75220;SDS011;63802;53.232;6.570;2023-02-15T11:44:24;38.67;;;16.50;;
75220;SDS011;63802;53.232;6.570;2023-02-15T11:47:09;39.67;;;18.23;;
75220;SDS011;63802;53.232;6.570;2023-02-15T11:49:36;37.00;;;16.83;;
75220;SDS011;63802;53.232;6.570;2023-02-15T11:52:06;41.78;;;16.55;;
75220;SDS011;63802;53.232;6.570;2023-02-15T11:54:36;35.30;;;17.08;;
75220;SDS011;63802;53.232;6.570;2023-02-15T11:57:28;36.50;;;16.55;;
75220;SDS011;63802;53.232;6.570;2023-02-15T12:03:07;33.22;;;13.93;;
75220;SDS011;63802;53.232;6.570;2023-02-15T12:05:40;37.63;;;15.98;;
75220;SDS011;63802;53.232;6.570;2023-02-15T12:08:12;36.30;;;17.08;;
75220;SDS011;63802;53.232;6.570;2023-02-15T12:13:26;36.05;;;16.20;;
75220;SDS011;63802;53.232;6.570;2023-02-15T12:15:55;33.28;;;15.70;;
75220;SDS011;63802;53.232;6.570;2023-02-15T12:18:34;38.65;;;16.00;;
75220;SDS011;63802;53.232;6.570;2023-02-15T12:21:43;35.85;;;15.13;;
75220;SDS011;63802;53.232;6.570;2023-02-15T12:23:52;31.83;;;14.48;;
75220;SDS011;63802;53.232;6.570;2023-02-15T12:29:27;37.88;;;16.30;;
75220;SDS011;63802;53.232;6.570;2023-02-15T12:34:23;33.80;;;14.75;;
75220;SDS011;63802;53.232;6.570;2023-02-15T12:39:28;36.97;;;15.30;;
75220;SDS011;63802;53.232;6.570;2023-02-15T12:44:21;39.60;;;16.38;;
75220;SDS011;63802;53.232;6.570;2023-02-15T12:47:17;36.25;;;16.55;;
75220;SDS011;63802;53.232;6.570;2023-02-15T12:49:44;37.13;;;17.33;;
75220;SDS011;63802;53.232;6.570;2023-02-15T12:52:28;36.08;;;16.38;;
75220;SDS011;63802;53.232;6.570;2023-02-15T12:54:53;34.03;;;16.85;;
75220;SDS011;63802;53.232;6.570;2023-02-15T12:57:23;43.35;;;17.77;;
75220;SDS011;63802;53.232;6.570;2023-02-15T12:59:59;39.25;;;17.13;;
75220;SDS011;63802;53.232;6.570;2023-02-15T13:02:30;38.10;;;17.70;;
75220;SDS011;63802;53.232;6.570;2023-02-15T13:05:13;36.72;;;16.33;;
75220;SDS011;63802;53.232;6.570;2023-02-15T13:07:50;36.83;;;16.80;;
75220;SDS011;63802;53.232;6.570;2023-02-15T13:10:37;41.50;;;17.80;;
75220;SDS011;63802;53.232;6.570;2023-02-15T13:13:14;44.88;;;19.00;;
75220;SDS011;63802;53.232;6.570;2023-02-15T13:15:48;44.65;;;19.45;;
75220;SDS011;63802;53.232;6.570;2023-02-15T13:18:19;40.63;;;18.80;;
75220;SDS011;63802;53.232;6.570;2023-02-15T13:20:54;47.38;;;19.30;;
75220;SDS011;63802;53.232;6.570;2023-02-15T13:23:28;45.80;;;19.13;;
75220;SDS011;63802;53.232;6.570;2023-02-15T13:25:56;39.10;;;17.80;;
75220;SDS011;63802;53.232;6.570;2023-02-15T13:28:26;42.95;;;18.05;;
75220;SDS011;63802;53.232;6.570;2023-02-15T13:31:03;42.15;;;18.50;;
75220;SDS011;63802;53.232;6.570;2023-02-15T13:33:34;45.42;;;18.48;;
75220;SDS011;63802;53.232;6.570;2023-02-15T13:41:12;40.05;;;17.98;;
75220;SDS011;63802;53.232;6.570;2023-02-15T13:43:59;43.75;;;18.42;;
75220;SDS011;63802;53.232;6.570;2023-02-15T13:52:05;43.65;;;17.25;;
75220;SDS011;63802;53.232;6.570;2023-02-15T13:54:46;37.13;;;18.05;;
75220;SDS011;63802;53.232;6.570;2023-02-15T13:57:29;41.00;;;18.15;;
75220;SDS011;63802;53.232;6.570;2023-02-15T14:00:26;40.20;;;17.90;;
75220;SDS011;63802;53.232;6.570;2023-02-15T14:03:19;41.13;;;18.02;;
75220;SDS011;63802;53.232;6.570;2023-02-15T14:08:43;38.25;;;17.77;;
75220;SDS011;63802;53.232;6.570;2023-02-15T14:14:13;37.20;;;19.00;;
75220;SDS011;63802;53.232;6.570;2023-02-15T14:19:44;35.30;;;17.25;;
75220;SDS011;63802;53.232;6.570;2023-02-15T14:25:29;41.55;;;18.38;;
75220;SDS011;63802;53.232;6.570;2023-02-15T14:28:03;35.63;;;16.77;;
75220;SDS011;63802;53.232;6.570;2023-02-15T14:30:49;42.17;;;17.50;;
75220;SDS011;63802;53.232;6.570;2023-02-15T14:36:05;37.10;;;16.83;;
75220;SDS011;63802;53.232;6.570;2023-02-15T14:38:51;40.58;;;16.75;;
75220;SDS011;63802;53.232;6.570;2023-02-15T14:44:15;35.92;;;15.73;;
75220;SDS011;63802;53.232;6.570;2023-02-15T14:47:00;35.03;;;16.40;;
75220;SDS011;63802;53.232;6.570;2023-02-15T14:49:37;37.70;;;17.25;;
75220;SDS011;63802;53.232;6.570;2023-02-15T14:52:08;36.30;;;15.95;;
75220;SDS011;63802;53.232;6.570;2023-02-15T15:07:50;39.10;;;16.23;;
75220;SDS011;63802;53.232;6.570;2023-02-15T15:09:59;35.10;;;15.38;;
75220;SDS011;63802;53.232;6.570;2023-02-15T15:12:40;33.15;;;14.77;;
75220;SDS011;63802;53.232;6.570;2023-02-15T15:15:11;39.65;;;15.95;;
75220;SDS011;63802;53.232;6.570;2023-02-15T15:25:43;35.00;;;15.32;;
75220;SDS011;63802;53.232;6.570;2023-02-15T15:33:50;36.63;;;14.73;;
75220;SDS011;63802;53.232;6.570;2023-02-15T15:48:06;38.47;;;15.90;;
75220;SDS011;63802;53.232;6.570;2023-02-15T15:50:34;36.10;;;16.48;;
75220;SDS011;63802;53.232;6.570;2023-02-15T15:53:00;46.22;;;15.98;;
75220;SDS011;63802;53.232;6.570;2023-02-15T15:55:30;34.80;;;15.88;;
75220;SDS011;63802;53.232;6.570;2023-02-15T15:58:07;42.22;;;17.33;;
75220;SDS011;63802;53.232;6.570;2023-02-15T16:01:34;39.58;;;16.98;;
75220;SDS011;63802;53.232;6.570;2023-02-15T16:03:33;37.47;;;15.98;;
75220;SDS011;63802;53.232;6.570;2023-02-15T16:05:59;35.17;;;16.17;;
75220;SDS011;63802;53.232;6.570;2023-02-15T16:08:33;36.08;;;16.02;;
75220;SDS011;63802;53.232;6.570;2023-02-15T16:11:16;39.55;;;17.30;;
75220;SDS011;63802;53.232;6.570;2023-02-15T16:13:47;41.97;;;16.48;;
75220;SDS011;63802;53.232;6.570;2023-02-15T16:16:13;39.13;;;16.40;;
75220;SDS011;63802;53.232;6.570;2023-02-15T16:18:52;38.65;;;17.15;;
75220;SDS011;63802;53.232;6.570;2023-02-15T16:21:22;37.55;;;16.63;;
75220;SDS011;63802;53.232;6.570;2023-02-15T16:23:59;42.28;;;18.38;;
75220;SDS011;63802;53.232;6.570;2023-02-15T16:29:38;37.83;;;16.85;;
75220;SDS011;63802;53.232;6.570;2023-02-15T16:32:04;38.70;;;16.23;;
75220;SDS011;63802;53.232;6.570;2023-02-15T16:34:31;42.60;;;16.67;;
75220;SDS011;63802;53.232;6.570;2023-02-15T16:39:43;41.92;;;18.05;;
75220;SDS011;63802;53.232;6.570;2023-02-15T16:42:11;42.10;;;17.20;;
75220;SDS011;63802;53.232;6.570;2023-02-15T16:44:38;38.17;;;16.20;;
75220;SDS011;63802;53.232;6.570;2023-02-15T16:47:06;44.28;;;18.30;;
75220;SDS011;63802;53.232;6.570;2023-02-15T16:49:44;40.58;;;16.27;;
75220;SDS011;63802;53.232;6.570;2023-02-15T16:52:14;44.80;;;17.73;;
75220;SDS011;63802;53.232;6.570;2023-02-15T16:54:45;41.65;;;17.90;;
75220;SDS011;63802;53.232;6.570;2023-02-15T16:57:16;36.65;;;17.05;;
75220;SDS011;63802;53.232;6.570;2023-02-15T16:59:45;39.28;;;16.92;;
75220;SDS011;63802;53.232;6.570;2023-02-15T17:02:18;42.90;;;17.95;;
75220;SDS011;63802;53.232;6.570;2023-02-15T17:04:45;38.80;;;17.73;;
75220;SDS011;63802;53.232;6.570;2023-02-15T17:07:27;45.75;;;17.13;;
75220;SDS011;63802;53.232;6.570;2023-02-15T17:09:53;44.47;;;18.17;;
75220;SDS011;63802;53.232;6.570;2023-02-15T17:15:32;41.38;;;17.98;;
75220;SDS011;63802;53.232;6.570;2023-02-15T17:18:00;40.33;;;16.63;;
75220;SDS011;63802;53.232;6.570;2023-02-15T17:20:32;42.22;;;16.98;;
75220;SDS011;63802;53.232;6.570;2023-02-15T17:22:58;46.13;;;18.83;;
75220;SDS011;63802;53.232;6.570;2023-02-15T17:25:34;43.08;;;17.27;;
75220;SDS011;63802;53.232;6.570;2023-02-15T17:28:03;43.22;;;17.48;;
75220;SDS011;63802;53.232;6.570;2023-02-15T17:30:30;43.50;;;17.52;;
75220;SDS011;63802;53.232;6.570;2023-02-15T17:32:58;40.17;;;18.48;;
75220;SDS011;63802;53.232;6.570;2023-02-15T17:35:29;43.42;;;17.80;;
75220;SDS011;63802;53.232;6.570;2023-02-15T17:38:03;43.38;;;17.90;;
75220;SDS011;63802;53.232;6.570;2023-02-15T17:40:42;43.70;;;17.45;;
75220;SDS011;63802;53.232;6.570;2023-02-15T17:43:07;47.40;;;17.52;;
75220;SDS011;63802;53.232;6.570;2023-02-15T17:45:34;42.63;;;17.58;;
75220;SDS011;63802;53.232;6.570;2023-02-15T17:48:03;39.28;;;17.58;;
75220;SDS011;63802;53.232;6.570;2023-02-15T17:50:30;41.58;;;17.92;;
75220;SDS011;63802;53.232;6.570;2023-02-15T17:52:57;39.65;;;17.70;;
75220;SDS011;63802;53.232;6.570;2023-02-15T17:55:23;40.40;;;18.13;;